Wetterdaten: Woche 13.06.16 - 19.06.16 (KW24)
Datum Zeit Temp. A. Feuchte A. Luftdruck Regen Wind Richtung Taupunkt Windchill Windben
13.06.2016 00:00 15,0 C 82 % 1006,3 hPa 0,0 l/m 0,0 km/h N 12,0 C 15,0 C 0,4 km/h
13.06.2016 01:00 14,8 C 82 % 1005,8 hPa 0,0 l/m 0,0 km/h N 11,8 C 14,8 C 1,2 km/h
13.06.2016 02:00 14,8 C 81 % 1005,6 hPa 0,0 l/m 0,0 km/h N 11,6 C 14,8 C 0,0 km/h
13.06.2016 03:00 15,3 C 82 % 1004,8 hPa 0,0 l/m 2,7 km/h N 12,2 C 15,3 C 13,7 km/h
13.06.2016 04:00 16,6 C 78 % 1004,3 hPa 0,0 l/m 5,6 km/h N 12,8 C 16,5 C 20,1 km/h
13.06.2016 05:00 16,8 C 76 % 1004,3 hPa 0,0 l/m 4,4 km/h N 12,6 C 16,7 C 15,3 km/h
13.06.2016 06:00 17,0 C 76 % 1004,4 hPa 0,0 l/m 9,2 km/h N 12,7 C 15,7 C 24,2 km/h
13.06.2016 07:00 17,4 C 76 % 1004,3 hPa 0,0 l/m 5,7 km/h N 13,0 C 17,2 C 17,3 km/h
13.06.2016 08:00 18,0 C 74 % 1004,1 hPa 0,0 l/m 7,7 km/h N 13,2 C 17,3 C 20,1 km/h
13.06.2016 09:00 19,1 C 70 % 1003,9 hPa 0,0 l/m 8,4 km/h N 13,4 C 18,2 C 20,1 km/h
13.06.2016 10:00 20,0 C 68 % 1003,8 hPa 0,0 l/m 7,2 km/h N 14,0 C 19,6 C 18,5 km/h
13.06.2016 11:00 20,9 C 65 % 1003,3 hPa 0,0 l/m 6,9 km/h N 14,1 C 20,6 C 19,7 km/h
13.06.2016 12:00 21,0 C 61 % 1002,6 hPa 0,0 l/m 9,6 km/h N 13,2 C 19,9 C 22,5 km/h
13.06.2016 13:00 21,9 C 60 % 1001,9 hPa 0,0 l/m 7,3 km/h N 13,8 C 21,5 C 18,9 km/h
13.06.2016 14:00 22,8 C 58 % 1001,1 hPa 0,0 l/m 5,1 km/h N 14,0 C 22,8 C 16,5 km/h
13.06.2016 15:00 22,5 C 61 % 1000,6 hPa 0,0 l/m 7,5 km/h N 14,5 C 22,1 C 21,7 km/h
13.06.2016 16:00 22,0 C 61 % 1000,2 hPa 0,0 l/m 5,8 km/h N 14,2 C 22,0 C 18,5 km/h
13.06.2016 17:00 22,7 C 54 % 999,9 hPa 0,0 l/m 7,8 km/h N 12,9 C 22,2 C 20,1 km/h
13.06.2016 18:00 23,3 C 53 % 999,9 hPa 0,0 l/m 5,6 km/h N 13,2 C 23,3 C 20,5 km/h
13.06.2016 19:00 22,6 C 55 % 999,9 hPa 0,0 l/m 6,2 km/h N 12,9 C 22,4 C 17,7 km/h
13.06.2016 20:00 20,8 C 62 % 1000,2 hPa 0,0 l/m 2,3 km/h N 13,1 C 20,8 C 11,3 km/h
13.06.2016 21:00 19,9 C 63 % 1000,5 hPa 0,0 l/m 2,4 km/h N 12,6 C 19,9 C 9,7 km/h
13.06.2016 22:00 19,0 C 64 % 1000,7 hPa 0,0 l/m 3,5 km/h N 12,0 C 19,0 C 14,5 km/h
13.06.2016 23:00 18,8 C 67 % 1000,7 hPa 0,0 l/m 7,8 km/h N 12,4 C 18,2 C 18,1 km/h
14.06.2016 00:00 18,1 C 72 % 1000,6 hPa 0,0 l/m 5,6 km/h N 13,0 C 18,1 C 17,7 km/h
14.06.2016 01:00 17,7 C 73 % 1000,2 hPa 0,0 l/m 3,1 km/h N 12,7 C 17,7 C 15,7 km/h
14.06.2016 02:00 17,3 C 73 % 999,8 hPa 0,0 l/m 3,1 km/h N 12,4 C 17,3 C 17,3 km/h
14.06.2016 03:00 17,1 C 72 % 1000,0 hPa 0,0 l/m 1,8 km/h N 12,0 C 17,1 C 9,6 km/h
14.06.2016 04:00 16,2 C 75 % 1000,3 hPa 0,0 l/m 0,1 km/h N 11,7 C 16,2 C 3,6 km/h
14.06.2016 05:00 16,2 C 76 % 1000,4 hPa 0,0 l/m 4,0 km/h N 12,0 C 16,2 C 14,5 km/h
14.06.2016 06:00 17,5 C 74 % 1000,6 hPa 0,0 l/m 7,9 km/h N 12,8 C 16,6 C 22,1 km/h
14.06.2016 07:00 18,0 C 73 % 1000,7 hPa 0,0 l/m 11,3 km/h N 13,1 C 16,0 C 26,2 km/h
14.06.2016 08:00 18,0 C 72 % 1001,1 hPa 0,0 l/m 8,2 km/h N 12,8 C 17,2 C 21,3 km/h
14.06.2016 09:00 19,0 C 69 % 1001,1 hPa 0,0 l/m 7,3 km/h N 13,3 C 18,6 C 21,7 km/h
14.06.2016 10:00 20,2 C 64 % 1001,0 hPa 0,0 l/m 9,3 km/h N 13,2 C 19,1 C 26,9 km/h
14.06.2016 11:00 20,9 C 64 % 1000,9 hPa 0,0 l/m 9,4 km/h N 13,7 C 19,8 C 23,7 km/h
14.06.2016 12:00 21,1 C 60 % 1000,7 hPa 0,0 l/m 8,6 km/h N 12,9 C 20,3 C 22,1 km/h
14.06.2016 13:00 21,6 C 59 % 1000,2 hPa 0,0 l/m 9,8 km/h N 13,2 C 20,5 C 20,9 km/h
14.06.2016 14:00 22,5 C 56 % 999,7 hPa 0,0 l/m 6,3 km/h N 13,2 C 22,4 C 17,7 km/h
14.06.2016 15:00 22,9 C 53 % 999,4 hPa 0,0 l/m 6,4 km/h N 12,8 C 22,9 C 17,7 km/h
14.06.2016 16:00 22,4 C 54 % 999,5 hPa 0,0 l/m 5,0 km/h N 12,7 C 22,4 C 16,5 km/h
14.06.2016 17:00 22,8 C 53 % 998,9 hPa 0,0 l/m 4,3 km/h N 12,8 C 22,8 C 12,9 km/h
14.06.2016 18:00 24,3 C 49 % 998,6 hPa 0,0 l/m 1,3 km/h N 12,9 C 24,3 C 7,7 km/h
14.06.2016 19:00 24,8 C 48 % 998,5 hPa 0,0 l/m 0,1 km/h N 13,0 C 24,8 C 2,4 km/h
14.06.2016 20:00 22,9 C 55 % 998,8 hPa 0,0 l/m 0,0 km/h N 13,4 C 22,9 C 0,8 km/h
14.06.2016 21:00 19,5 C 66 % 999,3 hPa 0,0 l/m 0,0 km/h N 13,0 C 19,5 C 0,4 km/h
14.06.2016 22:00 17,4 C 74 % 999,5 hPa 0,0 l/m 0,2 km/h N 12,7 C 17,4 C 3,2 km/h
14.06.2016 23:00 16,7 C 77 % 999,5 hPa 0,0 l/m 0,0 km/h N 12,7 C 16,7 C 0,4 km/h
15.06.2016 00:00 16,7 C 79 % 999,3 hPa 0,0 l/m 0,2 km/h N 13,0 C 16,7 C 1,6 km/h
15.06.2016 01:00 16,9 C 77 % 999,1 hPa 0,0 l/m 0,2 km/h N 12,8 C 16,9 C 3,2 km/h
15.06.2016 02:00 17,5 C 73 % 998,9 hPa 0,0 l/m 3,1 km/h N 12,6 C 17,5 C 12,1 km/h
15.06.2016 03:00 17,4 C 72 % 998,9 hPa 0,0 l/m 3,7 km/h N 12,3 C 17,4 C 14,1 km/h
15.06.2016 04:00 16,7 C 73 % 999,0 hPa 0,0 l/m 0,9 km/h N 11,8 C 16,7 C 6,4 km/h
15.06.2016 05:00 16,6 C 73 % 999,0 hPa 0,0 l/m 0,3 km/h N 11,8 C 16,6 C 7,2 km/h
15.06.2016 06:00 16,2 C 78 % 999,3 hPa 0,8 l/m 0,8 km/h N 12,3 C 16,2 C 8,9 km/h
15.06.2016 07:00 15,2 C 81 % 999,6 hPa 0,8 l/m 1,1 km/h N 12,0 C 15,2 C 8,9 km/h
15.06.2016 08:00 14,9 C 82 % 1000,1 hPa 0,3 l/m 0,6 km/h N 11,9 C 14,9 C 10,1 km/h
15.06.2016 09:00 14,9 C 82 % 1000,4 hPa 1,0 l/m 3,4 km/h N 11,8 C 14,8 C 15,7 km/h
15.06.2016 10:00 14,6 C 82 % 1000,9 hPa 0,5 l/m 5,4 km/h N 11,6 C 14,4 C 20,1 km/h
15.06.2016 11:00 14,5 C 82 % 1001,2 hPa 0,0 l/m 8,1 km/h N 11,5 C 13,5 C 25,3 km/h
15.06.2016 12:00 14,8 C 82 % 1001,5 hPa 0,5 l/m 10,5 km/h N 11,7 C 12,7 C 26,6 km/h
15.06.2016 13:00 14,9 C 81 % 1001,8 hPa 0,8 l/m 5,2 km/h N 11,7 C 14,7 C 14,9 km/h
15.06.2016 14:00 16,0 C 81 % 1002,2 hPa 0,0 l/m 2,9 km/h N 12,8 C 16,0 C 13,3 km/h
15.06.2016 15:00 17,6 C 76 % 1002,1 hPa 0,0 l/m 6,3 km/h N 13,3 C 17,4 C 18,5 km/h
15.06.2016 16:00 19,8 C 67 % 1002,0 hPa 0,0 l/m 7,4 km/h N 13,6 C 19,4 C 22,1 km/h
15.06.2016 17:00 21,1 C 62 % 1002,0 hPa 0,0 l/m 4,2 km/h N 13,6 C 21,1 C 15,3 km/h
15.06.2016 18:00 22,0 C 56 % 1002,1 hPa 0,0 l/m 4,0 km/h N 12,7 C 22,0 C 14,1 km/h
15.06.2016 19:00 21,9 C 56 % 1002,8 hPa 0,0 l/m 2,7 km/h N 12,7 C 21,9 C 10,1 km/h
15.06.2016 20:00 21,4 C 61 % 1003,3 hPa 0,0 l/m 0,2 km/h N 13,4 C 21,4 C 2,0 km/h
15.06.2016 21:00 18,1 C 70 % 1004,5 hPa 0,0 l/m 0,0 km/h N 12,4 C 18,1 C 0,0 km/h
15.06.2016 22:00 15,5 C 77 % 1005,1 hPa 0,0 l/m 0,0 km/h N 11,5 C 15,5 C 0,0 km/h
15.06.2016 23:00 14,4 C 81 % 1005,4 hPa 0,0 l/m 0,0 km/h N 11,2 C 14,4 C 0,0 km/h
16.06.2016 00:00 14,5 C 82 % 1005,6 hPa 0,0 l/m 0,0 km/h N 11,4 C 14,5 C 0,4 km/h
16.06.2016 01:00 14,3 C 82 % 1005,6 hPa 0,0 l/m 0,0 km/h N 11,2 C 14,3 C 0,4 km/h
16.06.2016 02:00 13,7 C 82 % 1005,6 hPa 0,0 l/m 0,0 km/h N 10,7 C 13,7 C 0,0 km/h
16.06.2016 03:00 13,1 C 82 % 1005,4 hPa 0,0 l/m 0,0 km/h N 10,1 C 13,1 C 0,0 km/h
16.06.2016 04:00 13,0 C 82 % 1005,3 hPa 0,0 l/m 0,0 km/h N 10,0 C 13,0 C 0,0 km/h
16.06.2016 05:00 12,9 C 82 % 1005,2 hPa 0,0 l/m 0,0 km/h N 9,9 C 12,9 C 0,0 km/h
16.06.2016 06:00 13,2 C 82 % 1005,2 hPa 0,0 l/m 0,0 km/h N 10,2 C 13,2 C 0,4 km/h
16.06.2016 07:00 14,8 C 82 % 1004,8 hPa 0,0 l/m 0,1 km/h N 11,6 C 14,8 C 3,2 km/h
16.06.2016 08:00 16,2 C 81 % 1004,8 hPa 0,0 l/m 0,3 km/h N 12,8 C 16,2 C 3,2 km/h
16.06.2016 09:00 17,8 C 82 % 1004,7 hPa 0,0 l/m 0,2 km/h N 14,6 C 17,8 C 3,6 km/h
16.06.2016 10:00 20,8 C 78 % 1004,0 hPa 0,0 l/m 0,8 km/h N 16,8 C 20,8 C 6,0 km/h
16.06.2016 11:00 24,2 C 69 % 1003,1 hPa 0,0 l/m 1,5 km/h N 18,0 C 24,2 C 8,4 km/h
16.06.2016 12:00 26,4 C 53 % 1003,1 hPa 0,0 l/m 7,5 km/h N 16,2 C 26,2 C 22,1 km/h
16.06.2016 13:00 25,0 C 59 % 1003,7 hPa 0,0 l/m 7,7 km/h N 16,3 C 24,6 C 22,5 km/h
16.06.2016 14:00 25,7 C 60 % 1003,8 hPa 0,0 l/m 6,9 km/h N 17,3 C 25,5 C 20,1 km/h
16.06.2016 15:00 25,6 C 60 % 1003,4 hPa 0,0 l/m 5,7 km/h N 17,3 C 25,6 C 18,1 km/h
16.06.2016 16:00 25,5 C 62 % 1003,0 hPa 0,0 l/m 5,6 km/h N 17,7 C 25,5 C 19,3 km/h
16.06.2016 17:00 25,2 C 64 % 1002,8 hPa 0,0 l/m 5,7 km/h N 18,0 C 25,2 C 16,9 km/h
16.06.2016 18:00 25,0 C 66 % 1002,3 hPa 0,0 l/m 3,8 km/h N 18,1 C 25,0 C 12,9 km/h
16.06.2016 19:00 24,6 C 68 % 1001,9 hPa 0,0 l/m 1,3 km/h N 18,3 C 24,6 C 8,9 km/h
16.06.2016 20:00 23,7 C 71 % 1001,6 hPa 0,0 l/m 0,5 km/h N 18,0 C 23,7 C 5,2 km/h
16.06.2016 21:00 22,1 C 74 % 1001,3 hPa 0,0 l/m 0,1 km/h N 17,3 C 22,1 C 2,0 km/h
16.06.2016 22:00 21,8 C 77 % 1001,0 hPa 0,0 l/m 2,3 km/h N 17,5 C 21,8 C 9,3 km/h
16.06.2016 23:00 22,1 C 77 % 1000,7 hPa 0,0 l/m 1,3 km/h N 17,8 C 22,1 C 6,0 km/h
17.06.2016 00:00 22,0 C 77 % 999,6 hPa 0,0 l/m 0,8 km/h N 17,8 C 22,0 C 6,4 km/h
17.06.2016 01:00 21,2 C 79 % 998,7 hPa 0,0 l/m 0,1 km/h N 17,3 C 21,2 C 2,8 km/h
17.06.2016 02:00 20,7 C 79 % 998,4 hPa 0,0 l/m 1,0 km/h N 16,9 C 20,7 C 5,2 km/h
17.06.2016 03:00 20,3 C 80 % 997,9 hPa 0,0 l/m 0,5 km/h N 16,7 C 20,3 C 4,8 km/h
17.06.2016 04:00 19,7 C 81 % 997,7 hPa 0,0 l/m 0,3 km/h N 16,4 C 19,7 C 4,4 km/h
17.06.2016 05:00 19,3 C 81 % 997,3 hPa 0,0 l/m 0,1 km/h N 15,9 C 19,3 C 3,6 km/h
17.06.2016 06:00 19,2 C 81 % 998,4 hPa 0,0 l/m 2,3 km/h N 15,8 C 19,2 C 8,9 km/h
17.06.2016 07:00 18,3 C 76 % 1000,6 hPa 0,0 l/m 10,3 km/h N 14,1 C 16,7 C 27,8 km/h
17.06.2016 08:00 17,3 C 74 % 1002,1 hPa 0,0 l/m 9,5 km/h N 12,7 C 16,0 C 31,8 km/h
17.06.2016 09:00 18,3 C 69 % 1003,1 hPa 0,0 l/m 10,1 km/h N 12,4 C 16,9 C 30,2 km/h
17.06.2016 10:00 19,6 C 64 % 1004,1 hPa 0,0 l/m 12,9 km/h N 12,6 C 17,5 C 36,2 km/h
17.06.2016 11:00 18,8 C 63 % 1005,9 hPa 0,0 l/m 15,3 km/h N 11,5 C 15,7 C 43,1 km/h
17.06.2016 12:00 18,7 C 62 % 1007,4 hPa 0,0 l/m 12,9 km/h N 11,1 C 16,2 C 39,4 km/h
17.06.2016 13:00 19,3 C 57 % 1008,4 hPa 0,0 l/m 17,3 km/h N 10,6 C 15,9 C 45,1 km/h
17.06.2016 14:00 20,4 C 55 % 1009,5 hPa 0,0 l/m 16,7 km/h N 10,9 C 17,4 C 42,7 km/h
17.06.2016 15:00 20,8 C 54 % 1010,0 hPa 0,0 l/m 15,2 km/h N 11,0 C 18,3 C 39,0 km/h
17.06.2016 16:00 20,3 C 55 % 1010,7 hPa 0,0 l/m 12,5 km/h N 10,9 C 18,3 C 32,2 km/h
17.06.2016 17:00 20,7 C 53 % 1011,1 hPa 0,0 l/m 7,6 km/h N 10,8 C 20,3 C 26,6 km/h
17.06.2016 18:00 20,5 C 55 % 1011,5 hPa 0,0 l/m 3,4 km/h N 11,0 C 20,4 C 14,5 km/h
17.06.2016 19:00 20,1 C 60 % 1012,0 hPa 0,8 l/m 0,7 km/h N 11,9 C 20,1 C 6,8 km/h
17.06.2016 20:00 18,2 C 75 % 1012,6 hPa 0,3 l/m 0,0 km/h N 13,7 C 18,2 C 0,4 km/h
17.06.2016 21:00 16,8 C 80 % 1013,7 hPa 0,3 l/m 0,0 km/h N 13,4 C 16,8 C 1,2 km/h
17.06.2016 22:00 15,8 C 81 % 1014,3 hPa 0,0 l/m 0,6 km/h N 12,6 C 15,8 C 4,4 km/h
17.06.2016 23:00 15,4 C 81 % 1014,7 hPa 0,0 l/m 0,4 km/h N 12,2 C 15,4 C 3,6 km/h
18.06.2016 00:00 14,8 C 82 % 1014,7 hPa 0,0 l/m 0,7 km/h N 11,7 C 14,8 C 4,4 km/h
18.06.2016 01:00 14,3 C 82 % 1014,7 hPa 0,0 l/m 0,8 km/h N 11,2 C 14,3 C 3,6 km/h
18.06.2016 02:00 13,8 C 82 % 1015,2 hPa 0,0 l/m 0,3 km/h N 10,8 C 13,8 C 4,4 km/h
18.06.2016 03:00 13,3 C 82 % 1015,4 hPa 0,0 l/m 0,0 km/h N 10,2 C 13,3 C 0,4 km/h
18.06.2016 04:00 12,8 C 82 % 1015,8 hPa 0,0 l/m 0,0 km/h N 9,8 C 12,8 C 1,2 km/h
18.06.2016 05:00 13,2 C 82 % 1016,4 hPa 0,0 l/m 0,0 km/h N 10,2 C 13,2 C 0,0 km/h
18.06.2016 06:00 13,6 C 82 % 1017,0 hPa 0,0 l/m 0,0 km/h N 10,6 C 13,6 C 0,4 km/h
18.06.2016 07:00 14,5 C 82 % 1017,2 hPa 0,0 l/m 0,0 km/h N 11,5 C 14,5 C 1,2 km/h
18.06.2016 08:00 16,7 C 81 % 1017,3 hPa 0,0 l/m 0,3 km/h N 13,5 C 16,7 C 2,8 km/h
18.06.2016 09:00 20,0 C 63 % 1017,4 hPa 0,0 l/m 3,3 km/h N 12,7 C 20,0 C 12,1 km/h
18.06.2016 10:00 21,5 C 57 % 1017,5 hPa 0,0 l/m 2,0 km/h N 12,5 C 21,5 C 9,7 km/h
18.06.2016 11:00 23,5 C 61 % 1017,2 hPa 0,0 l/m 0,7 km/h N 15,4 C 23,5 C 8,4 km/h
18.06.2016 12:00 23,6 C 52 % 1016,9 hPa 0,0 l/m 0,8 km/h N 13,2 C 23,6 C 6,0 km/h
18.06.2016 13:00 22,8 C 56 % 1016,7 hPa 0,0 l/m 0,1 km/h N 13,6 C 22,8 C 2,8 km/h
18.06.2016 14:00 23,0 C 58 % 1016,5 hPa 0,0 l/m 1,1 km/h N 14,3 C 23,0 C 8,0 km/h
18.06.2016 15:00 23,0 C 57 % 1016,4 hPa 0,0 l/m 3,4 km/h N 13,9 C 23,0 C 12,9 km/h
18.06.2016 16:00 22,0 C 61 % 1016,4 hPa 0,0 l/m 2,7 km/h N 14,1 C 22,0 C 12,5 km/h
18.06.2016 17:00 20,9 C 63 % 1016,3 hPa 0,0 l/m 2,5 km/h N 13,6 C 20,9 C 10,1 km/h
18.06.2016 18:00 21,8 C 59 % 1016,1 hPa 0,0 l/m 0,6 km/h N 13,4 C 21,8 C 5,2 km/h
18.06.2016 19:00 20,6 C 63 % 1015,7 hPa 0,0 l/m 2,7 km/h N 13,4 C 20,6 C 15,3 km/h
18.06.2016 20:00 20,4 C 62 % 1015,7 hPa 0,0 l/m 0,4 km/h N 12,9 C 20,4 C 3,2 km/h
18.06.2016 21:00 18,1 C 68 % 1016,3 hPa 0,0 l/m 0,3 km/h N 12,1 C 18,1 C 2,4 km/h
18.06.2016 22:00 16,5 C 73 % 1016,6 hPa 0,0 l/m 0,1 km/h N 11,6 C 16,5 C 2,0 km/h
18.06.2016 23:00 16,0 C 73 % 1016,3 hPa 0,0 l/m 0,1 km/h N 11,1 C 16,0 C 3,2 km/h
19.06.2016 00:00 15,9 C 73 % 1016,3 hPa 0,0 l/m 0,2 km/h N 11,0 C 15,9 C 4,0 km/h
19.06.2016 01:00 15,4 C 75 % 1016,7 hPa 0,0 l/m 0,0 km/h N 10,9 C 15,4 C 0,4 km/h
19.06.2016 02:00 15,4 C 76 % 1016,6 hPa 0,0 l/m 0,5 km/h N 11,3 C 15,4 C 3,6 km/h
19.06.2016 03:00 15,9 C 76 % 1016,4 hPa 0,3 l/m 0,4 km/h N 11,7 C 15,9 C 4,4 km/h
19.06.2016 04:00 16,0 C 77 % 1016,6 hPa 0,0 l/m 0,2 km/h N 11,9 C 16,0 C 3,6 km/h
19.06.2016 05:00 16,0 C 76 % 1016,9 hPa 0,0 l/m 1,1 km/h N 11,7 C 16,0 C 6,4 km/h
19.06.2016 06:00 16,6 C 74 % 1017,6 hPa 0,5 l/m 1,5 km/h N 12,0 C 16,6 C 11,3 km/h
19.06.2016 07:00 16,1 C 77 % 1018,1 hPa 0,0 l/m 1,5 km/h N 12,1 C 16,1 C 8,5 km/h
19.06.2016 08:00 17,3 C 73 % 1018,1 hPa 0,0 l/m 8,1 km/h N 12,4 C 16,5 C 19,3 km/h
19.06.2016 09:00 18,4 C 71 % 1018,1 hPa 0,0 l/m 4,8 km/h N 13,0 C 18,4 C 16,9 km/h
19.06.2016 10:00 19,8 C 67 % 1017,7 hPa 0,0 l/m 9,2 km/h N 13,5 C 18,6 C 26,1 km/h
19.06.2016 11:00 20,3 C 67 % 1017,6 hPa 0,0 l/m 7,3 km/h N 14,0 C 19,9 C 20,9 km/h
19.06.2016 12:00 20,7 C 67 % 1017,5 hPa 0,0 l/m 8,4 km/h N 14,3 C 19,9 C 19,7 km/h
19.06.2016 13:00 22,4 C 64 % 1017,2 hPa 0,0 l/m 7,2 km/h N 15,2 C 21,9 C 19,3 km/h
19.06.2016 14:00 23,7 C 58 % 1016,5 hPa 0,0 l/m 6,6 km/h N 14,9 C 23,6 C 19,7 km/h
19.06.2016 15:00 24,2 C 55 % 1016,1 hPa 0,0 l/m 4,8 km/h N 14,4 C 24,2 C 16,5 km/h
19.06.2016 16:00 23,7 C 56 % 1015,7 hPa 0,0 l/m 6,9 km/h N 14,3 C 23,5 C 17,7 km/h
19.06.2016 17:00 22,3 C 62 % 1015,4 hPa 0,0 l/m 11,4 km/h N 14,5 C 20,8 C 26,1 km/h
19.06.2016 18:00 21,5 C 66 % 1015,1 hPa 0,0 l/m 11,1 km/h N 14,8 C 20,0 C 27,0 km/h
19.06.2016 19:00 21,1 C 66 % 1015,3 hPa 0,0 l/m 10,6 km/h N 14,4 C 19,7 C 27,0 km/h
19.06.2016 20:00 19,6 C 69 % 1015,3 hPa 0,0 l/m 12,9 km/h N 13,7 C 17,4 C 28,2 km/h
19.06.2016 21:00 19,3 C 70 % 1016,1 hPa 0,0 l/m 12,8 km/h N 13,6 C 16,9 C 31,4 km/h
19.06.2016 22:00 17,8 C 78 % 1017,3 hPa 5,2 l/m 6,2 km/h N 13,9 C 17,3 C 21,3 km/h
19.06.2016 23:00 16,4 C 81 % 1017,5 hPa 2,3 l/m 8,6 km/h N 13,2 C 15,4 C 21,3 km/h
Min-Datum _ 16.06.16 14.06.16 17.06.16 - 13.06.16 - 18.06.16 15.06.16 13.06.16
_ Min-Zeit 05:45 18:45 05:00 - 00:00 - 04:15 12:15 00:00
Minimum _ 12,7 C 47 % 996,3 hPa - 0,0 km/h - 9,7 C 12,1 C 0,0 km/h
Max-Datum _ 16.06.16 16.06.16 19.06.16 19.06.16 17.06.16 - 16.06.16 16.06.16 17.06.16
_ Max-Zeit 12:30 07:45 08:45 22:30 13:30 - 11:15 12:30 11:00
Maximum _ 26,9 C 83 % 1018,3 hPa 5,2 l/m 22,3 km/h
N
- 18,8 C 26,7 C 53,1 km/h
N
Durchschnitt _ 19,0 C 70 % 1006,6 hPa #14,3 l/m 4,0 km/h N 13,1 C 18,6 C 13,0 km/h